METAR Data
IDs: Format: Raw Decoded Include TAF

Data at: 1352 UTC 07 Jul 2020

KRBW 071335Z AUTO 14005KT 10SM SCT005 BKN036 OVC044 23/23 A3003 RMK AO2
KRBW 071315Z AUTO 11006KT 10SM SCT003 BKN044 OVC080 23/23 A3003 RMK AO2 LTG DSNT S
KRBW 071255Z AUTO 11005KT 10SM BKN003 OVC011 23/23 A3003 RMK AO2 LTG DSNT S
KRBW 071235Z AUTO 11004KT 10SM BKN008 BKN037 OVC095 23/23 A3003 RMK AO2
KRBW 071215Z AUTO 12003KT 10SM SCT012 BKN030 BKN060 23/23 A3002 RMK AO2
KRBW 071155Z AUTO 13003KT 10SM -RA SCT012 BKN033 OVC100 23/22 A3003 RMK AO2 LTG DSNT E
KRBW 071135Z AUTO 11004KT 10SM SCT014 BKN080 OVC100 22/22 A3003 RMK AO2
KRBW 071115Z AUTO 12004KT 10SM BKN014 BKN070 OVC090 22/22 A3002 RMK AO2
KRBW 071055Z AUTO 12003KT 10SM SCT014 SCT018 22/22 A3002 RMK AO2
KRBW 071035Z AUTO 11004KT 10SM CLR 22/22 A3001 RMK AO2 LTG DSNT E
KRBW 071015Z AUTO 11004KT 10SM SCT014 SCT021 BKN047 22/22 A3002 RMK AO2
KRBW 070955Z AUTO 00000KT 10SM SCT018 BKN080 OVC120 22/22 A3001 RMK AO2 LTG DSNT SE
KRBW 070935Z AUTO 10003KT 10SM SCT016 BKN030 BKN120 22/22 A3001 RMK AO2
KRBW 070915Z AUTO 09003KT 10SM SCT004 BKN012 OVC120 23/22 A3001 RMK AO2 LTG DSNT NE AND SE
KRBW 070855Z AUTO 08003KT 10SM BKN014 BKN021 BKN037 22/22 A3001 RMK AO2 LTG DSNT SE
KRBW 070835Z AUTO 00000KT 10SM BKN016 BKN024 BKN037 22/22 A3001 RMK AO2 LTG DSNT NE
KRBW 070815Z AUTO 07003KT 10SM SCT016 BKN023 OVC030 22/22 A3001 RMK AO2 LTG DSNT NE
KRBW 070755Z AUTO 11004KT 4SM RA SCT010 BKN021 OVC026 22/22 A3001 RMK AO2 P0123
KRBW 070735Z AUTO 21006KT 1 3/4SM +RA SCT005 BKN019 OVC024 22/22 A3003 RMK AO2 P0068
KRBW 070715Z AUTO 16008KT 4SM +TSRA SCT009 SCT015 BKN021 23/22 A3003 RMK AO2 LTG DSNT E AND SW P0017
KRBW 070655Z AUTO 08005KT 10SM CLR 22/22 A3001 RMK AO2
KRBW 070635Z AUTO 07004KT 10SM SCT030 SCT039 SCT110 23/22 A3002 RMK AO2
KRBW 070615Z AUTO 09004KT 10SM SCT031 SCT036 BKN043 22/22 A3003 RMK AO2 LTG DSNT E
KRBW 070555Z AUTO 08003KT 10SM SCT002 SCT120 22/22 A3004 RMK AO2 LTG DSNT E
KRBW 070535Z AUTO 00000KT 10SM SCT002 BKN120 22/22 A3004 RMK AO2 LTG DSNT E
KRBW 070515Z AUTO 00000KT 10SM SCT002 SCT120 22/22 A3005 RMK AO2
KRBW 070455Z AUTO 11003KT 10SM CLR 22/22 A3005 RMK AO2 P0001
KRBW 070435Z AUTO 10004KT 10SM CLR 22/22 A3005 RMK AO2
KRBW 070415Z AUTO 11003KT 10SM CLR 22/22 A3004 RMK AO2
KRBW 070355Z AUTO 09004KT 10SM CLR 22/22 A3004 RMK AO2
KRBW 070335Z AUTO 10004KT 10SM CLR 22/22 A3004 RMK AO2
KRBW 070315Z AUTO 10005KT 10SM CLR 22/22 A3004 RMK AO2
KRBW 070255Z AUTO 10003KT 10SM CLR 22/22 A3005 RMK AO2 P0001
KRBW 070235Z AUTO 10003KT 10SM -RA SCT046 SCT055 22/22 A3005 RMK AO2 P0001
KRBW 070215Z AUTO 13004KT 10SM -RA SCT044 SCT055 22/22 A3005 RMK AO2 P0001
KRBW 070155Z AUTO 15004KT 10SM -RA SCT060 SCT070 23/22 A3005 RMK AO2 LTG DSNT E P0006
KRBW 070135Z AUTO 16005KT 10SM -RA SCT050 OVC070 23/22 A3006 RMK AO2 LTG DSNT N THRU E P0006
KRBW 070115Z AUTO 18006KT 7SM RA SCT050 BKN065 23/22 A3006 RMK AO2 LTG DSNT SE P0001
KRBW 070055Z AUTO 21007KT 10SM SCT017 SCT022 24/22 A3006 RMK AO2 LTG DSNT E
KRBW 070035Z AUTO 17011G16KT 10SM SCT015 SCT022 25/23 A3006 RMK AO2
KRBW 070015Z AUTO 13004KT 10SM CLR 25/23 A3004 RMK AO2
KRBW 062355Z AUTO 12003KT 10SM -RA CLR 25/23 A3004 RMK AO2
KRBW 062335Z AUTO 12004KT 10SM CLR 26/23 A3004 RMK AO2
KRBW 062315Z AUTO 13004KT 10SM CLR 26/24 A3004 RMK AO2 LTG DSNT N
KRBW 062255Z AUTO 12004KT 10SM CLR 26/24 A3003 RMK AO2 LTG DSNT N
KRBW 062235Z AUTO 14004KT 10SM CLR 26/24 A3003 RMK AO2 LTG DSNT N
KRBW 062215Z AUTO 12003KT 10SM CLR 26/24 A3003 RMK AO2
KRBW 062155Z AUTO 12004KT 10SM -RA SCT022 SCT030 26/23 A3003 RMK AO2
KRBW 062135Z AUTO 15004KT 10SM -RA SCT022 26/23 A3003 RMK AO2 LTG DSNT N
KRBW 062115Z AUTO 16006KT 10SM -RA CLR 27/23 A3004 RMK AO2
KRBW 062055Z AUTO 16006KT 10SM CLR 27/22 A3004 RMK AO2 LTG DSNT NW
KRBW 062035Z AUTO 15008G15KT 10SM CLR 28/22 A3004 RMK AO2
KRBW 062015Z AUTO 14009KT 10SM SCT032 SCT050 SCT070 28/22 A3004 RMK AO2 LTG DSNT N
KRBW 061955Z AUTO 13010KT 10SM SCT030 SCT037 29/22 A3003 RMK AO2 LTG DSNT N AND W
KRBW 061935Z AUTO 13010KT 10SM SCT030 SCT035 SCT043 30/23 A3003 RMK AO2 LTG DSNT SW THRU NW
KRBW 061915Z AUTO 15007G15KT 10SM SCT032 SCT043 SCT065 30/23 A3003 RMK AO2
KRBW 061855Z AUTO 13010KT 10SM SCT032 SCT043 SCT055 30/23 A3003 RMK AO2
KRBW 061835Z AUTO 14009KT 10SM SCT030 SCT055 SCT075 30/23 A3003 RMK AO2
KRBW 061815Z AUTO 14009KT 10SM SCT060 SCT075 30/23 A3003 RMK AO2 LTG DSNT SW
KRBW 061755Z AUTO 16008KT 10SM SCT032 SCT060 SCT070 30/22 A3004 RMK AO2
KRBW 061735Z AUTO 12008KT 10SM VCTS SCT032 SCT038 BKN070 30/23 A3005 RMK AO2
KRBW 061715Z AUTO 13007KT 10SM SCT028 BKN038 OVC085 30/22 A3006 RMK AO2 LTG DSNT N
KRBW 061655Z AUTO 11006KT 10SM BKN026 BKN035 BKN043 30/22 A3006 RMK AO2 LTG DSNT E
KRBW 061635Z AUTO 11005KT 10SM SCT028 SCT037 BKN065 29/22 A3006 RMK AO2
KRBW 061615Z AUTO 15006KT 10SM SCT050 30/23 A3007 RMK AO2
KRBW 061555Z AUTO 14004KT 10SM SCT025 SCT041 SCT047 29/23 A3008 RMK AO2 LTG DSNT NE AND SW
KRBW 061535Z AUTO 14004KT 10SM SCT023 SCT030 SCT060 29/23 A3008 RMK AO2 LTG DSNT SW
KRBW 061515Z AUTO 16004KT 10SM SCT023 SCT030 SCT035 28/23 A3008 RMK AO2
KRBW 061455Z AUTO 16004KT 10SM SCT021 SCT026 28/23 A3007 RMK AO2 LTG DSNT NE
KRBW 061435Z AUTO 15004KT 10SM BKN021 BKN026 BKN034 28/23 A3007 RMK AO2
KRBW 061415Z AUTO 13004KT 10SM SCT034 SCT042 SCT060 28/23 A3007 RMK AO2 LTG DSNT NE
KRBW 061355Z AUTO 14006KT 10SM SCT017 SCT028 27/23 A3007 RMK AO2
KRBW 061335Z AUTO 15004KT 10SM BKN015 BKN028 BKN039 27/23 A3006 RMK AO2
KRBW 061315Z AUTO 14004KT 10SM BKN015 BKN021 27/23 A3006 RMK AO2
KRBW 061255Z AUTO 14005KT 10SM CLR 27/23 A3005 RMK AO2
KRBW 061235Z AUTO 11004KT 10SM CLR 26/23 A3005 RMK AO2
KRBW 061215Z AUTO 10003KT 7SM 25/23 A3005 RMK AO2
KRBW 061135Z AUTO 11003KT 10SM CLR 23/23 A3003 RMK AO2
KRBW 061115Z AUTO 08003KT 10SM CLR 23/22 A3003 RMK AO2
KRBW 061055Z AUTO 00000KT 10SM SCT043 22/22 A3002 RMK AO2
KRBW 061035Z AUTO 00000KT 10SM BKN043 22/22 A3002 RMK AO2
KRBW 061015Z AUTO 00000KT 10SM SCT043 22/22 A3002 RMK AO2 LTG DSNT E
KRBW 060955Z AUTO 00000KT 10SM CLR 22/22 A3001 RMK AO2
KRBW 060935Z AUTO 07003KT 10SM CLR 22/22 A3000 RMK AO2
KRBW 060915Z AUTO 07003KT 10SM CLR 22/22 A3000 RMK AO2
KRBW 060855Z AUTO 00000KT 10SM CLR 22/22 A3000 RMK AO2
KRBW 060835Z AUTO 00000KT 10SM CLR 22/22 A3000 RMK AO2
KRBW 060815Z AUTO 00000KT 10SM SCT014 SCT018 22/22 A2999 RMK AO2
KRBW 060755Z AUTO 00000KT 10SM SCT006 23/22 A3000 RMK AO2
KRBW 060735Z AUTO 00000KT 10SM BKN006 23/22 A2999 RMK AO2
KRBW 060715Z AUTO 07003KT 10SM SCT006 23/22 A2999 RMK AO2
KRBW 060655Z AUTO 09003KT 10SM SCT006 SCT014 SCT110 23/22 A2999 RMK AO2
KRBW 060635Z AUTO 11003KT 10SM SCT006 SCT014 SCT110 23/22 A3000 RMK AO2
KRBW 060615Z AUTO 00000KT 10SM SCT085 SCT110 23/22 A3000 RMK AO2
KRBW 060555Z AUTO 12003KT 10SM SCT085 23/22 A3001 RMK AO2
KRBW 060535Z AUTO 12006KT 10SM BKN085 23/22 A3001 RMK AO2
KRBW 060515Z AUTO 10004KT 10SM SCT085 23/22 A3001 RMK AO2
KRBW 060455Z AUTO 00000KT 10SM SCT085 23/22 A3001 RMK AO2
KRBW 060435Z AUTO 00000KT 10SM CLR 23/22 A3001 RMK AO2
KRBW 060415Z AUTO 12004KT 10SM CLR 23/22 A3001 RMK AO2
KRBW 060355Z AUTO 15004KT 10SM CLR 23/22 A3001 RMK AO2
KRBW 060335Z AUTO 14004KT 10SM CLR 23/22 A3001 RMK AO2
KRBW 060315Z AUTO 13005KT 10SM CLR 23/22 A3001 RMK AO2
KRBW 060255Z AUTO 13005KT 10SM CLR 24/22 A3000 RMK AO2
KRBW 060235Z AUTO 11005KT 10SM SCT026 SCT033 SCT040 24/23 A3000 RMK AO2
KRBW 060215Z AUTO 13007KT 10SM -RA SCT025 BKN033 BKN040 25/22 A3000 RMK AO2
KRBW 060155Z AUTO 11004KT 10SM SCT023 25/22 A3000 RMK AO2 LTG DSNT SE